CheckWX is a tool to help pilots better visualize weather data.  It is not intended as a substitute for an official pre-flight weather briefing.

20:30:07 UTC

KMSY TAF
Louis Armstrong New Orleans International Airport
New Orleans, Louisiana, USA
KMSY 221738Z 2218/2324 15004KT P6SM SCT250 FM231000 00000KT 6SM BR FEW110 FEW250 FM231200 VRB03KT 5SM BR FEW110 FEW250 FM231400 VRB04KT P6SM FEW250 FM232000 12006KT P6SM FEW250

Mar-22@
18:00 UTC

Mar-22 @ 18:00 UTC

Mar-23@
10:00 UTC

Mar-23 @ 10:00 UTC

KMSY 221738Z 2218/2324 15004KT P6SM SCT250
Wind
  • 150° at 4 KTS
Cloud Levels
  • Scattered at 25,000' AGL

Mar-23@
10:00 UTC

Mar-23 @ 10:00 UTC

Mar-23@
12:00 UTC

Mar-23 @ 12:00 UTC

FM231000 00000KT 6SM BR FEW110 FEW250

From

From Standard forecast or significant change

Conditions
Mist
Cloud Levels
  • Few at 11,000' AGL
  • Few at 25,000' AGL

Mar-23@
12:00 UTC

Mar-23 @ 12:00 UTC

Mar-23@
14:00 UTC

Mar-23 @ 14:00 UTC

FM231200 VRB03KT 5SM BR FEW110 FEW250

From

From Standard forecast or significant change

Wind
  • Variable at 3 KTS
Conditions
Mist
Cloud Levels
  • Few at 11,000' AGL
  • Few at 25,000' AGL

Mar-23@
14:00 UTC

Mar-23 @ 14:00 UTC

Mar-23@
20:00 UTC

Mar-23 @ 20:00 UTC

FM231400 VRB04KT P6SM FEW250

From

From Standard forecast or significant change

Wind
  • Variable at 4 KTS
Cloud Levels
  • Few at 25,000' AGL

Mar-23@
20:00 UTC

Mar-23 @ 20:00 UTC

Mar-24@
00:00 UTC

Mar-24 @ 00:00 UTC

FM232000 12006KT P6SM FEW250

From

From Standard forecast or significant change

Wind
  • 120° at 6 KTS
Cloud Levels
  • Few at 25,000' AGL